Time;durP1;ratioP1;P1;durP2;ratioP2;P2;SDS_P1;SDS_P2;PMS_P1;PMS_P2;Temp;Humidity;BMP_temperature;BMP_pressure;BME280_temperature;BME280_humidity;BME280_pressure;Samples;Min_cycle;Max_cycle;Signal;HPM_P1;HPM_P2
2022/12/29 00:01:56;;;;;;;18.73;8.60;;;;;;;;;;6223493;23;20179;-90
2022/12/29 00:05:01;;;;;;;24.00;8.63;;;;;;;;;;6224631;23;20163;-89
2022/12/29 00:08:06;;;;;;;19.43;8.70;;;;;;;;;;6224796;23;20198;-89
2022/12/29 00:11:12;;;;;;;23.20;8.23;;;;;;;;;;6224263;23;20168;-90
2022/12/29 00:17:41;;;;;;;21.63;9.33;;;;;;;;;;6226643;23;20209;-90
2022/12/29 00:44:33;;;;;;;43.67;17.70;;;;;;;;;;6224679;23;20168;-92
2022/12/29 00:47:38;;;;;;;19.03;8.63;;;;;;;;;;6223949;23;20242;-89
2022/12/29 00:50:43;;;;;;;17.30;8.60;;;;;;;;;;6225100;23;20171;-92
2022/12/29 00:53:48;;;;;;;17.80;8.67;;;;;;;;;;6224224;23;20499;-88
2022/12/29 00:56:54;;;;;;;18.37;7.90;;;;;;;;;;6225170;23;20151;-88
2022/12/29 00:59:59;;;;;;;19.37;7.13;;;;;;;;;;6224542;23;20163;-91
2022/12/29 01:03:04;;;;;;;16.80;8.20;;;;;;;;;;6224056;23;20155;-91
2022/12/29 01:06:11;;;;;;;17.33;8.00;;;;;;;;;;6225220;23;20285;-91
2022/12/29 01:12:44;;;;;;;16.83;8.63;;;;;;;;;;6224968;23;20147;-92
2022/12/29 01:15:51;;;;;;;18.70;8.60;;;;;;;;;;6225433;23;20287;-88
2022/12/29 01:18:56;;;;;;;19.37;8.77;;;;;;;;;;6223979;23;20253;-88
2022/12/29 01:22:03;;;;;;;17.90;8.30;;;;;;;;;;6225054;23;20171;-88
2022/12/29 01:25:08;;;;;;;16.87;8.67;;;;;;;;;;6223220;23;20211;-89
2022/12/29 01:28:17;;;;;;;16.80;7.67;;;;;;;;;;6225144;23;20186;-88
2022/12/29 01:31:22;;;;;;;15.27;8.03;;;;;;;;;;6216041;23;20257;-87
2022/12/29 01:34:27;;;;;;;12.97;6.90;;;;;;;;;;6237264;23;20210;-89
2022/12/29 01:37:33;;;;;;;16.93;8.47;;;;;;;;;;6238125;23;20158;-90
2022/12/29 01:40:44;;;;;;;23.47;8.43;;;;;;;;;;6236791;23;20249;-90
2022/12/29 01:43:54;;;;;;;15.33;7.90;;;;;;;;;;6236616;23;20190;-90
2022/12/29 01:47:00;;;;;;;17.03;7.73;;;;;;;;;;6237996;22;20282;-89
2022/12/29 01:50:07;;;;;;;13.83;7.57;;;;;;;;;;6239252;23;20174;-90
2022/12/29 01:53:16;;;;;;;14.40;7.40;;;;;;;;;;6238617;23;20287;-91
2022/12/29 01:56:21;;;;;;;14.40;7.13;;;;;;;;;;6236108;23;20163;-90
2022/12/29 01:59:29;;;;;;;16.73;7.57;;;;;;;;;;6237194;23;20161;-90
2022/12/29 02:02:34;;;;;;;15.50;7.23;;;;;;;;;;6239317;23;20167;-89
2022/12/29 02:05:42;;;;;;;17.97;8.33;;;;;;;;;;6239530;23;20166;-90
2022/12/29 02:08:54;;;;;;;19.67;8.03;;;;;;;;;;6238834;23;20250;-88
2022/12/29 02:12:01;;;;;;;19.37;8.70;;;;;;;;;;6237731;23;20165;-91
2022/12/29 02:15:09;;;;;;;21.20;8.83;;;;;;;;;;6236831;23;20252;-91
2022/12/29 02:18:20;;;;;;;20.67;8.77;;;;;;;;;;6239132;23;20166;-90
2022/12/29 02:21:38;;;;;;;15.83;8.03;;;;;;;;;;6239245;23;20170;-89
2022/12/29 02:25:01;;;;;;;21.33;7.20;;;;;;;;;;6237965;23;20166;-89
2022/12/29 02:28:22;;;;;;;13.63;7.40;;;;;;;;;;6237432;22;20276;-88
2022/12/29 02:31:31;;;;;;;13.37;6.93;;;;;;;;;;6225607;23;20194;-90
2022/12/29 02:34:41;;;;;;;19.83;8.13;;;;;;;;;;6224206;23;20171;-90
2022/12/29 02:37:52;;;;;;;17.40;7.83;;;;;;;;;;6225136;23;20262;-92
2022/12/29 02:40:59;;;;;;;12.73;6.80;;;;;;;;;;6225636;23;20183;-90
2022/12/29 02:44:10;;;;;;;17.40;7.10;;;;;;;;;;6224814;23;20155;-89
2022/12/29 02:47:20;;;;;;;14.07;7.33;;;;;;;;;;6225346;23;20183;-88
2022/12/29 02:50:27;;;;;;;14.97;7.17;;;;;;;;;;6225653;23;20210;-89
2022/12/29 02:56:57;;;;;;;15.63;6.43;;;;;;;;;;6225933;23;20158;-90
2022/12/29 03:00:07;;;;;;;13.97;7.37;;;;;;;;;;6226164;23;20162;-92
2022/12/29 03:03:19;;;;;;;19.07;7.43;;;;;;;;;;6225187;23;20242;-90
2022/12/29 03:06:32;;;;;;;16.70;6.93;;;;;;;;;;6224663;23;20183;-87
2022/12/29 03:09:40;;;;;;;13.53;6.97;;;;;;;;;;6225214;23;20190;-90
2022/12/29 03:16:15;;;;;;;17.00;8.07;;;;;;;;;;6226244;23;20163;-90
2022/12/29 03:19:25;;;;;;;19.57;8.23;;;;;;;;;;6224907;23;20211;-90
2022/12/29 03:22:33;;;;;;;17.10;8.63;;;;;;;;;;6224406;23;20151;-89
2022/12/29 03:25:44;;;;;;;18.50;8.43;;;;;;;;;;6222783;23;20223;-91
2022/12/29 03:28:53;;;;;;;27.27;9.80;;;;;;;;;;6224320;23;20191;-90
2022/12/29 03:32:01;;;;;;;19.27;9.33;;;;;;;;;;6225080;23;20189;-90
2022/12/29 03:35:10;;;;;;;21.30;9.23;;;;;;;;;;6224116;23;20210;-88
2022/12/29 03:38:17;;;;;;;20.13;9.47;;;;;;;;;;6224863;23;20172;-92
2022/12/29 03:41:25;;;;;;;20.43;9.20;;;;;;;;;;6225550;23;20501;-91
2022/12/29 03:44:44;;;;;;;22.97;10.17;;;;;;;;;;6223851;23;20179;-92
2022/12/29 03:47:50;;;;;;;23.90;8.83;;;;;;;;;;6224485;23;20167;-91
2022/12/29 03:50:58;;;;;;;15.80;7.77;;;;;;;;;;6227236;23;20186;-90
2022/12/29 03:54:03;;;;;;;21.47;9.13;;;;;;;;;;6226918;23;20175;-90
2022/12/29 03:57:08;;;;;;;26.10;9.13;;;;;;;;;;6226995;23;20167;-91
2022/12/29 04:00:24;;;;;;;22.80;9.43;;;;;;;;;;6226758;23;20171;-89
2022/12/29 04:03:28;;;;;;;18.97;8.07;;;;;;;;;;6226156;23;20162;-87
2022/12/29 04:06:36;;;;;;;20.47;8.73;;;;;;;;;;6225548;23;20171;-91
2022/12/29 04:09:44;;;;;;;19.87;7.93;;;;;;;;;;6225790;23;20198;-90
2022/12/29 04:12:58;;;;;;;19.63;9.00;;;;;;;;;;6225149;23;20254;-90
2022/12/29 04:16:03;;;;;;;20.43;8.27;;;;;;;;;;6226159;23;20172;-91
2022/12/29 04:19:08;;;;;;;18.60;7.97;;;;;;;;;;6226671;23;20167;-92
2022/12/29 04:22:16;;;;;;;17.30;8.77;;;;;;;;;;6225712;23;20170;-89
2022/12/29 04:25:21;;;;;;;19.63;8.17;;;;;;;;;;6226338;23;20170;-91
2022/12/29 04:28:26;;;;;;;23.33;8.93;;;;;;;;;;6225979;23;20567;-90
2022/12/29 04:31:34;;;;;;;22.13;8.77;;;;;;;;;;6226815;23;20273;-90
2022/12/29 04:34:40;;;;;;;23.23;9.77;;;;;;;;;;6225362;23;20170;-90
2022/12/29 04:37:47;;;;;;;21.60;9.20;;;;;;;;;;6225306;23;20166;-91
2022/12/29 04:40:53;;;;;;;22.07;8.70;;;;;;;;;;6226604;23;20789;-91
2022/12/29 04:44:03;;;;;;;22.17;9.40;;;;;;;;;;6225334;23;20228;-90
2022/12/29 04:47:27;;;;;;;23.23;9.37;;;;;;;;;;6227328;23;20217;-92
2022/12/29 04:50:55;;;;;;;26.50;9.40;;;;;;;;;;6228386;23;20222;-91
2022/12/29 04:54:05;;;;;;;16.80;8.30;;;;;;;;;;6226960;23;20159;-92
2022/12/29 04:57:11;;;;;;;17.90;8.27;;;;;;;;;;6226894;23;20172;-91
2022/12/29 05:00:17;;;;;;;23.80;8.77;;;;;;;;;;6224322;23;20171;-89
2022/12/29 05:03:22;;;;;;;25.53;9.50;;;;;;;;;;6223637;23;20167;-88
2022/12/29 05:06:28;;;;;;;25.63;10.10;;;;;;;;;;6226167;23;20187;-89
2022/12/29 05:09:35;;;;;;;19.93;9.00;;;;;;;;;;6225641;23;20199;-89
2022/12/29 05:12:41;;;;;;;17.50;8.00;;;;;;;;;;6226026;23;20174;-90
2022/12/29 05:15:47;;;;;;;19.17;8.37;;;;;;;;;;6225007;23;20198;-91
2022/12/29 05:18:53;;;;;;;20.00;7.93;;;;;;;;;;6224983;23;20168;-89
2022/12/29 05:21:59;;;;;;;20.13;8.90;;;;;;;;;;6225171;23;20187;-90
2022/12/29 05:25:06;;;;;;;21.83;8.73;;;;;;;;;;6224052;23;20166;-91
2022/12/29 05:28:18;;;;;;;20.13;8.63;;;;;;;;;;6224586;23;20172;-89
2022/12/29 05:31:28;;;;;;;19.87;8.47;;;;;;;;;;6224868;23;20265;-91
2022/12/29 05:34:33;;;;;;;19.87;8.30;;;;;;;;;;6223876;23;20291;-92
2022/12/29 05:37:39;;;;;;;19.57;8.47;;;;;;;;;;6225753;23;20175;-91
2022/12/29 05:40:54;;;;;;;18.83;7.90;;;;;;;;;;6226585;23;20195;-89
2022/12/29 05:44:18;;;;;;;15.07;7.17;;;;;;;;;;6226357;23;20233;-91
2022/12/29 05:47:42;;;;;;;13.73;7.13;;;;;;;;;;6226094;23;20191;-90
2022/12/29 05:50:59;;;;;;;16.43;6.87;;;;;;;;;;6225076;23;20164;-89
2022/12/29 05:54:15;;;;;;;15.07;6.80;;;;;;;;;;6224196;23;20174;-91
2022/12/29 05:57:21;;;;;;;14.13;6.00;;;;;;;;;;6224293;23;20166;-93
2022/12/29 06:00:35;;;;;;;13.70;5.90;;;;;;;;;;6223871;23;20176;-89
2022/12/29 06:03:40;;;;;;;13.60;6.33;;;;;;;;;;6224428;23;20166;-91
2022/12/29 06:06:46;;;;;;;10.63;5.83;;;;;;;;;;6224601;23;20171;-91
2022/12/29 06:09:59;;;;;;;11.73;7.00;;;;;;;;;;6223936;23;20198;-91
2022/12/29 06:13:06;;;;;;;12.97;6.73;;;;;;;;;;6224285;23;20601;-89
2022/12/29 06:16:14;;;;;;;17.97;7.50;;;;;;;;;;6221939;23;20174;-90
2022/12/29 06:19:20;;;;;;;14.67;7.20;;;;;;;;;;6222991;23;20170;-91
2022/12/29 06:22:26;;;;;;;17.13;7.73;;;;;;;;;;6225896;23;20171;-92
2022/12/29 06:25:33;;;;;;;12.20;6.10;;;;;;;;;;6223290;23;20503;-90
2022/12/29 06:28:40;;;;;;;15.77;6.57;;;;;;;;;;6224860;23;20206;-92
2022/12/29 06:31:46;;;;;;;14.03;6.67;;;;;;;;;;6223523;23;20255;-92
2022/12/29 06:34:51;;;;;;;11.27;5.93;;;;;;;;;;6223175;23;20222;-90
2022/12/29 06:37:56;;;;;;;15.87;6.83;;;;;;;;;;6222648;23;20302;-89
2022/12/29 06:41:01;;;;;;;16.77;5.90;;;;;;;;;;6223605;23;20246;-91
2022/12/29 06:44:50;;;;;;;13.47;6.10;;;;;;;;;;6224243;23;20247;-90
2022/12/29 06:47:56;;;;;;;14.53;6.90;;;;;;;;;;6224530;23;20167;-90
2022/12/29 06:51:01;;;;;;;14.37;6.83;;;;;;;;;;6224455;23;20187;-90
2022/12/29 06:54:06;;;;;;;14.57;6.63;;;;;;;;;;6224507;23;20167;-90
2022/12/29 06:57:11;;;;;;;11.80;6.10;;;;;;;;;;6223520;23;20660;-91
2022/12/29 07:00:17;;;;;;;14.47;6.77;;;;;;;;;;6225153;23;20278;-89
2022/12/29 07:03:23;;;;;;;12.17;6.70;;;;;;;;;;6224376;23;20167;-90
2022/12/29 07:06:29;;;;;;;13.53;6.43;;;;;;;;;;6225693;23;20171;-92
2022/12/29 07:09:34;;;;;;;13.57;6.63;;;;;;;;;;6225505;23;20195;-91
2022/12/29 07:12:39;;;;;;;14.23;7.23;;;;;;;;;;6226029;23;20175;-90
2022/12/29 07:15:44;;;;;;;15.17;6.60;;;;;;;;;;6226047;23;20236;-90
2022/12/29 07:18:51;;;;;;;10.63;6.23;;;;;;;;;;6223660;23;20807;-89
2022/12/29 07:21:56;;;;;;;14.10;6.70;;;;;;;;;;6225524;23;20158;-89
2022/12/29 07:25:02;;;;;;;13.13;6.20;;;;;;;;;;6225013;23;20167;-92
2022/12/29 07:28:07;;;;;;;13.27;6.83;;;;;;;;;;6225899;23;20175;-88
2022/12/29 07:31:15;;;;;;;10.37;6.00;;;;;;;;;;6224160;23;20225;-91
2022/12/29 07:34:21;;;;;;;12.60;6.47;;;;;;;;;;6223482;23;20167;-90
2022/12/29 07:37:26;;;;;;;13.77;6.30;;;;;;;;;;6224580;23;20168;-89
2022/12/29 07:40:31;;;;;;;14.27;7.00;;;;;;;;;;6225961;23;20498;-89
2022/12/29 07:43:36;;;;;;;13.97;6.70;;;;;;;;;;6223740;23;20171;-92
2022/12/29 07:47:00;;;;;;;16.63;7.73;;;;;;;;;;6225337;23;20214;-90
2022/12/29 07:50:07;;;;;;;15.93;6.93;;;;;;;;;;6224815;23;20194;-89
2022/12/29 07:53:11;;;;;;;26.67;12.17;;;;;;;;;;6224605;23;20175;-90
2022/12/29 07:56:16;;;;;;;15.33;7.67;;;;;;;;;;6225709;23;20167;-91
2022/12/29 07:59:21;;;;;;;13.47;6.50;;;;;;;;;;6226033;23;20249;-90
2022/12/29 08:02:28;;;;;;;14.17;7.10;;;;;;;;;;6226813;23;20168;-90
2022/12/29 08:05:35;;;;;;;20.47;7.90;;;;;;;;;;6226721;23;20171;-90
2022/12/29 08:08:40;;;;;;;13.30;6.83;;;;;;;;;;6226314;23;20171;-89
2022/12/29 08:11:45;;;;;;;15.73;7.43;;;;;;;;;;6228125;23;20190;-89
2022/12/29 08:14:51;;;;;;;15.43;7.17;;;;;;;;;;6226744;23;20187;-88
2022/12/29 08:17:56;;;;;;;14.37;7.13;;;;;;;;;;6226350;23;20247;-90
2022/12/29 08:21:04;;;;;;;13.80;7.30;;;;;;;;;;6224750;23;20242;-90
2022/12/29 08:24:10;;;;;;;15.00;7.73;;;;;;;;;;6224962;23;20174;-89
2022/12/29 08:27:15;;;;;;;15.27;8.17;;;;;;;;;;6225227;23;20211;-89
2022/12/29 08:30:20;;;;;;;16.47;9.13;;;;;;;;;;6224992;23;20713;-89
2022/12/29 08:33:25;;;;;;;14.47;7.97;;;;;;;;;;6225359;23;20175;-90
2022/12/29 08:36:32;;;;;;;16.40;7.70;;;;;;;;;;6230792;23;20215;-90
2022/12/29 08:39:37;;;;;;;15.43;7.20;;;;;;;;;;6227392;23;20190;-89
2022/12/29 08:42:46;;;;;;;17.07;7.73;;;;;;;;;;6226780;23;20155;-91
2022/12/29 08:45:51;;;;;;;12.87;7.27;;;;;;;;;;6227495;23;20179;-91
2022/12/29 08:48:56;;;;;;;13.43;6.83;;;;;;;;;;6229989;23;20272;-90
2022/12/29 08:52:03;;;;;;;14.27;7.03;;;;;;;;;;6233217;23;20171;-87
2022/12/29 08:55:08;;;;;;;19.10;7.30;;;;;;;;;;6224352;23;20162;-90
2022/12/29 08:58:16;;;;;;;13.90;7.30;;;;;;;;;;6226877;23;20199;-90
2022/12/29 09:01:24;;;;;;;18.17;7.80;;;;;;;;;;6227186;23;20606;-90
2022/12/29 09:04:29;;;;;;;25.90;11.97;;;;;;;;;;6225565;23;20170;-89
2022/12/29 09:07:36;;;;;;;19.97;8.20;;;;;;;;;;6226911;23;20171;-91
2022/12/29 09:10:41;;;;;;;13.80;6.90;;;;;;;;;;6225868;23;20291;-89
2022/12/29 09:13:46;;;;;;;20.80;8.20;;;;;;;;;;6225841;23;20172;-90
2022/12/29 09:20:16;;;;;;;14.17;6.53;;;;;;;;;;6225050;23;20163;-88
2022/12/29 09:23:22;;;;;;;17.13;7.30;;;;;;;;;;6221150;23;20244;-88
2022/12/29 09:26:27;;;;;;;16.20;6.67;;;;;;;;;;6223671;23;20180;-88
2022/12/29 09:29:32;;;;;;;20.33;7.23;;;;;;;;;;6227690;23;20163;-90
2022/12/29 09:32:38;;;;;;;16.33;6.80;;;;;;;;;;6224544;23;20297;-89
2022/12/29 09:35:44;;;;;;;16.40;6.43;;;;;;;;;;6224593;23;20170;-90
2022/12/29 09:38:51;;;;;;;14.70;7.27;;;;;;;;;;6224922;23;20179;-90
2022/12/29 09:42:02;;;;;;;11.87;5.77;;;;;;;;;;6225881;23;20222;-90
2022/12/29 09:45:17;;;;;;;13.87;6.87;;;;;;;;;;6225287;23;20172;-90
2022/12/29 09:48:23;;;;;;;14.77;6.33;;;;;;;;;;6224074;23;20618;-88
2022/12/29 09:51:28;;;;;;;16.40;6.50;;;;;;;;;;6226013;23;20198;-91
2022/12/29 09:54:43;;;;;;;13.57;7.17;;;;;;;;;;6226073;23;20190;-89
2022/12/29 09:57:51;;;;;;;14.47;7.10;;;;;;;;;;6225489;23;20175;-89
2022/12/29 10:01:00;;;;;;;15.00;6.57;;;;;;;;;;6226016;23;20268;-91
2022/12/29 10:04:07;;;;;;;14.97;6.53;;;;;;;;;;6225482;23;20187;-90
2022/12/29 10:07:15;;;;;;;13.67;7.03;;;;;;;;;;6225798;23;20151;-90
2022/12/29 10:10:36;;;;;;;15.80;7.67;;;;;;;;;;6224530;23;20191;-88
2022/12/29 10:13:51;;;;;;;13.60;7.00;;;;;;;;;;6225523;23;20167;-92
2022/12/29 10:17:00;;;;;;;10.50;5.67;;;;;;;;;;6226220;23;20179;-92
2022/12/29 10:20:26;;;;;;;15.03;6.37;;;;;;;;;;6226592;23;20502;-90
2022/12/29 10:23:35;;;;;;;11.83;5.90;;;;;;;;;;6224670;23;20187;-91
2022/12/29 10:26:43;;;;;;;18.90;9.10;;;;;;;;;;6227550;23;20171;-91
2022/12/29 10:29:50;;;;;;;18.63;8.40;;;;;;;;;;6227062;23;20191;-90
2022/12/29 10:32:58;;;;;;;18.00;8.17;;;;;;;;;;6227118;23;20163;-89
2022/12/29 10:36:05;;;;;;;13.15;7.20;;;;;;;;;;6227391;23;20266;-90
2022/12/29 10:39:13;;;;;;;15.32;8.02;;;;;;;;;;6226337;23;20337;-91
2022/12/29 10:42:24;;;;;;;14.38;7.07;;;;;;;;;;6229200;23;20300;-90
2022/12/29 10:45:33;;;;;;;14.65;7.72;;;;;;;;;;6229094;23;20166;-89
2022/12/29 10:48:39;;;;;;;15.25;7.55;;;;;;;;;;6227724;23;20298;-89
2022/12/29 10:51:46;;;;;;;16.90;6.70;;;;;;;;;;6226652;23;20179;-88
2022/12/29 10:54:53;;;;;;;14.52;6.55;;;;;;;;;;6230154;23;20222;-90
2022/12/29 10:58:04;;;;;;;12.43;6.88;;;;;;;;;;6227924;23;20602;-90
2022/12/29 11:01:11;;;;;;;13.60;6.72;;;;;;;;;;6228617;23;20267;-92
2022/12/29 11:04:24;;;;;;;21.85;8.07;;;;;;;;;;6226864;23;20258;-90
2022/12/29 11:07:31;;;;;;;17.25;7.63;;;;;;;;;;6226757;23;20176;-90
2022/12/29 11:10:38;;;;;;;12.80;6.35;;;;;;;;;;6225647;23;20183;-90
2022/12/29 11:13:51;;;;;;;15.70;7.13;;;;;;;;;;6227309;23;20178;-90
2022/12/29 11:16:59;;;;;;;14.10;6.75;;;;;;;;;;6226851;23;20222;-88
2022/12/29 11:20:20;;;;;;;14.50;6.93;;;;;;;;;;6226445;23;20167;-89
2022/12/29 11:23:28;;;;;;;15.38;6.88;;;;;;;;;;6224333;23;20214;-88
2022/12/29 11:26:33;;;;;;;16.60;6.65;;;;;;;;;;6224455;23;20254;-91
2022/12/29 11:29:41;;;;;;;12.52;6.30;;;;;;;;;;6224372;23;20187;-90
2022/12/29 11:32:52;;;;;;;13.55;6.38;;;;;;;;;;6224679;23;20163;-91
2022/12/29 11:35:59;;;;;;;20.35;8.85;;;;;;;;;;6224929;23;20210;-88
2022/12/29 11:39:05;;;;;;;14.38;6.93;;;;;;;;;;6222956;23;20150;-90
2022/12/29 11:42:15;;;;;;;15.10;6.75;;;;;;;;;;6221607;23;20171;-89
2022/12/29 11:45:25;;;;;;;15.65;7.05;;;;;;;;;;6222077;23;20167;-90
2022/12/29 11:48:34;;;;;;;17.00;7.80;;;;;;;;;;6223029;23;20508;-88
2022/12/29 11:51:41;;;;;;;13.70;6.70;;;;;;;;;;6220156;23;20247;-91
2022/12/29 11:54:46;;;;;;;12.63;6.00;;;;;;;;;;6222941;23;20206;-90
2022/12/29 11:57:52;;;;;;;10.07;5.32;;;;;;;;;;6223172;23;20206;-90
2022/12/29 12:00:59;;;;;;;13.60;6.10;;;;;;;;;;6222223;23;20166;-88
2022/12/29 12:04:06;;;;;;;12.90;6.28;;;;;;;;;;6221326;23;20164;-88
2022/12/29 12:07:14;;;;;;;13.82;6.65;;;;;;;;;;6220768;23;20164;-89
2022/12/29 12:10:23;;;;;;;12.00;5.78;;;;;;;;;;6223297;23;20155;-91
2022/12/29 12:13:36;;;;;;;12.60;6.55;;;;;;;;;;6227965;23;20170;-89
2022/12/29 12:16:45;;;;;;;15.48;6.80;;;;;;;;;;6227070;23;20634;-91
2022/12/29 12:19:55;;;;;;;17.50;6.93;;;;;;;;;;6225252;23;20179;-87
2022/12/29 12:23:04;;;;;;;25.67;12.20;;;;;;;;;;6226856;23;20503;-90
2022/12/29 12:26:12;;;;;;;16.33;6.25;;;;;;;;;;6223856;23;20253;-90
2022/12/29 12:29:22;;;;;;;18.52;7.75;;;;;;;;;;6225537;23;20171;-90
2022/12/29 12:32:31;;;;;;;12.68;6.13;;;;;;;;;;6224936;23;20195;-87
2022/12/29 12:35:41;;;;;;;12.85;5.72;;;;;;;;;;6225010;23;20167;-89
2022/12/29 12:38:51;;;;;;;17.55;6.78;;;;;;;;;;6227130;23;20289;-89
2022/12/29 12:42:02;;;;;;;16.92;7.85;;;;;;;;;;6226622;23;20219;-90
2022/12/29 12:45:24;;;;;;;25.45;11.55;;;;;;;;;;6225927;23;20206;-90
2022/12/29 12:48:38;;;;;;;36.53;14.02;;;;;;;;;;6226411;23;20179;-88
2022/12/29 12:51:47;;;;;;;28.30;13.63;;;;;;;;;;6226377;23;20251;-88
2022/12/29 12:55:04;;;;;;;20.45;9.73;;;;;;;;;;6226924;23;20187;-88
2022/12/29 12:58:13;;;;;;;20.65;10.63;;;;;;;;;;6227781;23;20171;-88
2022/12/29 13:01:26;;;;;;;21.33;9.40;;;;;;;;;;6226466;23;20167;-87
2022/12/29 13:04:47;;;;;;;15.07;7.47;;;;;;;;;;6226288;23;20251;-88
2022/12/29 13:08:01;;;;;;;22.25;10.25;;;;;;;;;;6226104;23;20225;-88
2022/12/29 13:11:10;;;;;;;22.45;10.85;;;;;;;;;;6226671;23;20198;-89
2022/12/29 13:14:24;;;;;;;39.28;17.65;;;;;;;;;;6228849;23;20167;-87
2022/12/29 13:17:37;;;;;;;21.75;9.68;;;;;;;;;;6226470;23;20172;-89
2022/12/29 13:20:47;;;;;;;17.05;7.50;;;;;;;;;;6230594;23;20178;-89
2022/12/29 13:23:58;;;;;;;17.00;7.38;;;;;;;;;;6227932;23;20626;-89
2022/12/29 13:27:06;;;;;;;22.33;7.90;;;;;;;;;;6227706;23;20171;-89
2022/12/29 13:30:14;;;;;;;18.13;6.95;;;;;;;;;;6227455;23;20187;-87
2022/12/29 13:33:23;;;;;;;13.02;6.93;;;;;;;;;;6226235;23;20616;-88
2022/12/29 13:36:31;;;;;;;15.88;7.18;;;;;;;;;;6227850;23;20167;-89
2022/12/29 13:39:40;;;;;;;16.08;6.32;;;;;;;;;;6227419;23;20171;-89
2022/12/29 13:43:27;;;;;;;14.93;5.80;;;;;;;;;;6225958;23;20556;-89
2022/12/29 13:46:35;;;;;;;12.43;5.25;;;;;;;;;;6227809;23;20170;-90
2022/12/29 13:49:40;;;;;;;15.98;6.50;;;;;;;;;;6225624;23;20287;-89
2022/12/29 13:52:46;;;;;;;12.90;6.20;;;;;;;;;;6227532;23;20685;-90
2022/12/29 13:55:57;;;;;;;12.10;5.72;;;;;;;;;;6225769;23;20186;-89
2022/12/29 13:59:06;;;;;;;10.55;5.43;;;;;;;;;;6224261;23;20168;-88
2022/12/29 14:02:15;;;;;;;15.30;6.40;;;;;;;;;;6225401;23;20195;-89
2022/12/29 14:05:30;;;;;;;11.55;5.72;;;;;;;;;;6226261;23;20175;-88
2022/12/29 14:08:36;;;;;;;15.77;6.10;;;;;;;;;;6225724;23;20174;-87
2022/12/29 14:11:44;;;;;;;16.20;5.50;;;;;;;;;;6227301;23;20194;-88
2022/12/29 14:14:49;;;;;;;10.30;5.20;;;;;;;;;;6227619;23;20155;-90
2022/12/29 14:18:13;;;;;;;13.93;6.07;;;;;;;;;;6228729;23;20166;-88
2022/12/29 14:21:21;;;;;;;13.18;6.80;;;;;;;;;;6225339;23;20299;-89
2022/12/29 14:24:40;;;;;;;16.30;7.28;;;;;;;;;;6224312;23;20174;-88
2022/12/29 14:27:53;;;;;;;20.45;10.68;;;;;;;;;;6221320;23;20167;-89
2022/12/29 14:30:59;;;;;;;15.13;6.43;;;;;;;;;;6222739;23;20330;-90
2022/12/29 14:34:23;;;;;;;19.50;8.25;;;;;;;;;;6223707;23;20479;-90
2022/12/29 14:37:29;;;;;;;31.90;15.30;;;;;;;;;;6224270;23;20234;-89
2022/12/29 14:40:34;;;;;;;61.97;35.58;;;;;;;;;;6225510;23;20171;-90
2022/12/29 14:43:53;;;;;;;32.10;20.17;;;;;;;;;;6223184;23;20163;-87
2022/12/29 14:46:59;;;;;;;14.38;7.88;;;;;;;;;;6227397;23;20171;-89
2022/12/29 14:50:06;;;;;;;14.02;7.22;;;;;;;;;;6223188;23;20171;-87
2022/12/29 14:53:31;;;;;;;17.63;7.55;;;;;;;;;;6225849;23;20167;-88
2022/12/29 14:56:40;;;;;;;13.57;6.65;;;;;;;;;;6225472;23;20172;-89
2022/12/29 14:59:45;;;;;;;18.25;7.57;;;;;;;;;;6225374;23;20162;-90
2022/12/29 15:02:51;;;;;;;23.65;10.60;;;;;;;;;;6225955;23;20210;-90
2022/12/29 15:05:58;;;;;;;25.38;8.25;;;;;;;;;;6227126;23;20171;-88
2022/12/29 15:09:14;;;;;;;21.92;8.38;;;;;;;;;;6228314;23;20242;-89
2022/12/29 15:12:25;;;;;;;19.77;6.80;;;;;;;;;;6227219;23;20174;-88
2022/12/29 15:15:30;;;;;;;18.37;7.77;;;;;;;;;;6226406;23;20167;-88
2022/12/29 15:18:39;;;;;;;17.80;7.80;;;;;;;;;;6229333;23;20295;-88
2022/12/29 15:21:44;;;;;;;18.97;8.80;;;;;;;;;;6228750;23;21085;-89
2022/12/29 15:24:51;;;;;;;18.57;8.83;;;;;;;;;;6226665;23;20170;-91
2022/12/29 15:28:03;;;;;;;23.07;9.70;;;;;;;;;;6228519;23;20162;-89
2022/12/29 15:31:13;;;;;;;23.57;9.13;;;;;;;;;;6234512;23;20186;-88
2022/12/29 15:34:22;;;;;;;25.20;9.37;;;;;;;;;;6239404;23;20190;-90
2022/12/29 15:37:28;;;;;;;23.03;9.80;;;;;;;;;;6113762;23;20181;-90
2022/12/29 15:40:36;;;;;;;18.07;9.03;;;;;;;;;;6084665;23;20619;-87
2022/12/29 15:43:55;;;;;;;31.20;13.07;;;;;;;;;;6108879;23;20504;-90
2022/12/29 15:47:03;;;;;;;24.67;9.43;;;;;;;;;;6110792;23;20170;-88
2022/12/29 15:50:11;;;;;;;26.07;10.07;;;;;;;;;;6112027;23;20161;-90
2022/12/29 15:53:20;;;;;;;27.30;12.00;;;;;;;;;;6111648;23;20193;-90
2022/12/29 15:56:26;;;;;;;34.27;15.70;;;;;;;;;;6111588;23;20214;-88
2022/12/29 15:59:34;;;;;;;33.63;13.17;;;;;;;;;;6111540;23;20210;-89
2022/12/29 16:02:39;;;;;;;25.77;11.23;;;;;;;;;;6110693;23;20173;-90
2022/12/29 16:05:51;;;;;;;26.97;11.40;;;;;;;;;;6110015;23;20181;-90
2022/12/29 16:09:00;;;;;;;30.10;12.63;;;;;;;;;;6110593;23;20287;-91
2022/12/29 16:12:07;;;;;;;30.63;15.10;;;;;;;;;;6111005;23;20202;-89
2022/12/29 16:15:15;;;;;;;31.30;15.17;;;;;;;;;;6111816;23;20174;-89
2022/12/29 16:18:25;;;;;;;25.50;11.53;;;;;;;;;;6108990;23;20174;-89
2022/12/29 16:21:31;;;;;;;23.80;10.30;;;;;;;;;;6109912;23;20166;-88
2022/12/29 16:24:38;;;;;;;24.60;10.57;;;;;;;;;;6108099;23;20268;-88
2022/12/29 16:27:44;;;;;;;24.10;10.87;;;;;;;;;;6109663;23;20177;-90
2022/12/29 16:30:58;;;;;;;28.00;14.13;;;;;;;;;;6109404;23;20174;-89
2022/12/29 16:34:13;;;;;;;18.00;8.63;;;;;;;;;;6110224;23;20227;-90
2022/12/29 16:37:28;;;;;;;24.37;12.20;;;;;;;;;;6108804;23;20158;-91
2022/12/29 16:40:33;;;;;;;23.17;11.77;;;;;;;;;;6116958;23;20238;-90
2022/12/29 16:43:43;;;;;;;20.23;10.27;;;;;;;;;;6111052;23;20642;-92
2022/12/29 16:47:19;;;;;;;20.70;9.63;;;;;;;;;;6110996;23;20199;-88
2022/12/29 16:50:25;;;;;;;19.80;9.30;;;;;;;;;;6110261;23;20232;-89
2022/12/29 16:53:32;;;;;;;24.43;9.93;;;;;;;;;;6110271;23;20194;-89
2022/12/29 16:56:38;;;;;;;25.63;10.43;;;;;;;;;;6111103;23;20170;-89
2022/12/29 16:59:44;;;;;;;20.97;9.53;;;;;;;;;;6111375;23;20253;-90
2022/12/29 17:02:53;;;;;;;21.57;9.10;;;;;;;;;;6110845;23;20169;-89
2022/12/29 17:05:59;;;;;;;25.17;11.00;;;;;;;;;;6111102;23;20174;-89
2022/12/29 17:09:04;;;;;;;28.03;11.87;;;;;;;;;;6107867;23;20179;-88
2022/12/29 17:12:12;;;;;;;27.03;13.10;;;;;;;;;;6109207;23;20649;-88
2022/12/29 17:15:23;;;;;;;23.50;10.47;;;;;;;;;;6107841;23;20243;-89
2022/12/29 17:18:30;;;;;;;25.27;11.03;;;;;;;;;;6107502;23;20310;-91
2022/12/29 17:21:35;;;;;;;23.10;10.97;;;;;;;;;;6093381;23;20230;-90
2022/12/29 17:24:40;;;;;;;31.03;10.47;;;;;;;;;;6107855;23;20182;-88
2022/12/29 17:27:47;;;;;;;30.70;13.23;;;;;;;;;;6106598;23;20177;-86
2022/12/29 17:30:53;;;;;;;25.33;11.60;;;;;;;;;;6108477;23;20181;-86
2022/12/29 17:34:00;;;;;;;36.73;12.90;;;;;;;;;;6108929;23;20254;-88
2022/12/29 17:37:11;;;;;;;22.33;10.23;;;;;;;;;;6110130;23;20722;-87
2022/12/29 17:40:18;;;;;;;27.40;13.57;;;;;;;;;;6167236;23;20188;-90
2022/12/29 17:43:28;;;;;;;28.27;11.00;;;;;;;;;;6195791;23;20167;-88
2022/12/29 17:46:34;;;;;;;20.57;9.43;;;;;;;;;;6196994;23;20308;-90
2022/12/29 17:49:44;;;;;;;26.73;9.57;;;;;;;;;;6197800;23;20171;-88
2022/12/29 17:52:52;;;;;;;27.97;11.00;;;;;;;;;;6197751;23;20187;-87
2022/12/29 17:55:56;;;;;;;23.70;10.60;;;;;;;;;;6197828;23;20242;-90
2022/12/29 17:59:01;;;;;;;23.57;10.70;;;;;;;;;;6198053;23;20775;-89
2022/12/29 18:02:19;;;;;;;24.70;10.13;;;;;;;;;;6197071;23;20187;-88
2022/12/29 18:05:26;;;;;;;20.30;9.97;;;;;;;;;;6195591;23;20237;-91
2022/12/29 18:08:31;;;;;;;26.23;10.90;;;;;;;;;;6195209;23;20176;-91
2022/12/29 18:11:37;;;;;;;26.03;10.50;;;;;;;;;;6198281;23;20171;-91
2022/12/29 18:14:42;;;;;;;26.60;11.20;;;;;;;;;;6198310;23;20298;-90
2022/12/29 18:17:48;;;;;;;22.07;9.93;;;;;;;;;;6197804;23;20495;-88
2022/12/29 18:20:55;;;;;;;17.70;8.50;;;;;;;;;;6197390;23;20168;-89
2022/12/29 18:27:39;;;;;;;29.80;12.83;;;;;;;;;;6196453;23;20192;-90
2022/12/29 18:30:44;;;;;;;25.27;11.60;;;;;;;;;;6194690;23;20705;-88
2022/12/29 18:33:50;;;;;;;26.40;11.23;;;;;;;;;;6192957;23;20596;-89
2022/12/29 18:36:58;;;;;;;28.27;11.90;;;;;;;;;;6194930;23;20152;-87
2022/12/29 18:40:04;;;;;;;35.70;15.70;;;;;;;;;;6201467;23;20191;-89
2022/12/29 18:43:10;;;;;;;142.93;57.33;;;;;;;;;;6194689;23;20175;-88
2022/12/29 18:46:15;;;;;;;26.77;12.03;;;;;;;;;;6194337;23;20458;-89
2022/12/29 18:49:20;;;;;;;32.23;14.00;;;;;;;;;;6198230;23;20167;-89
2022/12/29 18:52:28;;;;;;;28.83;13.53;;;;;;;;;;6194040;23;20696;-86
2022/12/29 18:55:33;;;;;;;18.37;10.37;;;;;;;;;;6192309;23;20212;-89
2022/12/29 18:58:38;;;;;;;21.17;10.40;;;;;;;;;;6194634;23;20160;-90
2022/12/29 19:01:43;;;;;;;29.00;11.87;;;;;;;;;;6194435;23;20188;-86
2022/12/29 19:05:15;;;;;;;28.83;11.77;;;;;;;;;;6195312;23;20768;-89
2022/12/29 19:08:22;;;;;;;31.67;14.83;;;;;;;;;;6195519;23;20163;-89
2022/12/29 19:11:27;;;;;;;25.23;11.70;;;;;;;;;;6196460;23;20159;-89
2022/12/29 19:14:32;;;;;;;23.13;10.57;;;;;;;;;;6196445;23;20180;-90